createdAt,value
2019-05-21T00:02:06.774Z,42.57
2019-05-21T00:04:38.885Z,38.67
2019-05-21T00:07:10.744Z,40.43
2019-05-21T00:09:42.814Z,39.93
2019-05-21T00:12:14.572Z,47.50
2019-05-21T00:14:46.393Z,39.25
2019-05-21T00:17:18.245Z,46.87
2019-05-21T00:19:49.858Z,47.23
2019-05-21T00:22:21.554Z,50.03
2019-05-21T00:24:53.511Z,45.92
2019-05-21T00:27:25.329Z,37.53
2019-05-21T00:30:32.795Z,48.67
2019-05-21T00:33:40.168Z,40.23
2019-05-21T00:36:49.482Z,41.45
2019-05-21T00:39:57.222Z,41.07
2019-05-21T00:42:30.984Z,44.43
2019-05-21T00:45:02.759Z,43.57
2019-05-21T00:47:34.062Z,45.80
2019-05-21T00:50:07.020Z,48.57
2019-05-21T00:52:38.891Z,48.13
2019-05-21T00:55:10.951Z,46.40
2019-05-21T00:57:42.963Z,49.50
2019-05-21T01:00:15.719Z,49.10
2019-05-21T01:02:47.922Z,49.00
2019-05-21T01:05:19.434Z,43.90
2019-05-21T01:07:51.036Z,56.47
2019-05-21T01:10:22.541Z,51.30
2019-05-21T01:12:54.536Z,50.70
2019-05-21T01:15:25.789Z,45.20
2019-05-21T01:17:57.573Z,47.25
2019-05-21T01:20:29.224Z,46.50
2019-05-21T01:23:01.067Z,42.15
2019-05-21T01:25:33.274Z,48.97
2019-05-21T01:28:05.444Z,49.23
2019-05-21T01:30:37.503Z,47.67
2019-05-21T01:33:09.227Z,47.67
2019-05-21T01:35:40.785Z,49.40
2019-05-21T01:38:12.432Z,49.17
2019-05-21T01:40:44.262Z,54.43
2019-05-21T01:43:16.204Z,51.13
2019-05-21T01:45:48.527Z,48.13
2019-05-21T01:48:19.930Z,52.27
2019-05-21T01:50:52.224Z,52.40
2019-05-21T01:53:23.513Z,54.57
2019-05-21T01:55:55.052Z,60.58
2019-05-21T01:58:28.259Z,62.05
2019-05-21T02:00:59.546Z,56.63
2019-05-21T02:03:31.471Z,63.87
2019-05-21T02:06:03.092Z,62.17
2019-05-21T02:08:34.717Z,54.20
2019-05-21T02:11:07.017Z,61.67
2019-05-21T02:13:39.792Z,54.70
2019-05-21T02:16:11.665Z,54.70
2019-05-21T02:18:44.343Z,61.63
2019-05-21T02:21:17.199Z,59.47
2019-05-21T02:23:49.180Z,51.05
2019-05-21T02:26:21.529Z,61.57
2019-05-21T02:28:54.481Z,57.73
2019-05-21T02:31:26.188Z,59.80
2019-05-21T02:33:58.532Z,53.00
2019-05-21T02:36:31.167Z,59.37
2019-05-21T02:39:04.439Z,54.97
2019-05-21T02:41:35.725Z,55.50
2019-05-21T02:44:07.095Z,60.47
2019-05-21T02:46:38.687Z,58.53
2019-05-21T02:49:11.282Z,60.40
2019-05-21T02:51:43.221Z,58.70
2019-05-21T02:54:14.769Z,54.27
2019-05-21T02:56:47.066Z,56.43
2019-05-21T02:59:18.929Z,56.47
2019-05-21T03:01:56.711Z,58.48
2019-05-21T03:04:29.576Z,61.20
2019-05-21T03:07:18.893Z,56.00
2019-05-21T03:09:50.487Z,62.17
2019-05-21T03:12:21.817Z,54.53
2019-05-21T03:14:53.722Z,60.10
2019-05-21T03:17:26.769Z,56.07
2019-05-21T03:19:58.236Z,53.42
2019-05-21T03:22:29.839Z,53.30
2019-05-21T03:25:02.767Z,57.80
2019-05-21T03:27:34.705Z,51.83
2019-05-21T03:30:06.280Z,55.53
2019-05-21T03:32:37.608Z,54.07
2019-05-21T03:35:09.885Z,52.17
2019-05-21T03:37:41.994Z,55.33
2019-05-21T03:40:13.649Z,58.10
2019-05-21T03:42:45.758Z,52.70
2019-05-21T03:45:17.670Z,51.63
2019-05-21T03:47:49.952Z,55.73
2019-05-21T03:50:21.895Z,58.07
2019-05-21T03:52:54.366Z,49.15
2019-05-21T03:55:25.877Z,51.08
2019-05-21T03:57:57.595Z,54.37
2019-05-21T04:00:29.472Z,50.37
2019-05-21T04:03:01.538Z,52.43
2019-05-21T04:05:32.826Z,57.10
2019-05-21T04:08:04.776Z,53.33
2019-05-21T04:10:37.001Z,54.50
2019-05-21T04:13:09.692Z,56.03
2019-05-21T04:16:10.413Z,59.27
2019-05-21T04:19:01.632Z,55.97
2019-05-21T04:21:33.718Z,58.02
2019-05-21T04:24:08.809Z,57.50
2019-05-21T04:26:39.365Z,53.37
2019-05-21T04:29:11.250Z,58.37
2019-05-21T04:31:43.277Z,59.00
2019-05-21T04:34:14.587Z,65.93
2019-05-21T04:36:46.898Z,60.93
2019-05-21T04:39:18.496Z,56.47
2019-05-21T04:41:50.433Z,66.30
2019-05-21T04:44:22.242Z,55.52
2019-05-21T04:46:54.579Z,60.50
2019-05-21T04:49:26.290Z,61.57
2019-05-21T04:51:58.675Z,66.03
2019-05-21T04:54:30.396Z,63.10
2019-05-21T04:57:14.695Z,68.67
2019-05-21T04:59:47.013Z,64.93
2019-05-21T05:02:19.097Z,64.63
2019-05-21T05:04:51.259Z,69.37
2019-05-21T05:07:28.102Z,68.20
2019-05-21T05:09:56.994Z,73.40
2019-05-21T05:12:28.819Z,62.70
2019-05-21T05:15:00.419Z,61.02
2019-05-21T05:17:32.361Z,59.17
2019-05-21T05:20:04.300Z,60.77
2019-05-21T05:22:35.918Z,59.00
2019-05-21T05:25:07.803Z,60.77
2019-05-21T05:27:39.155Z,58.60
2019-05-21T05:30:11.566Z,56.83
2019-05-21T05:32:42.995Z,51.53
2019-05-21T05:35:15.130Z,59.47
2019-05-21T05:37:48.958Z,57.33
2019-05-21T05:40:20.592Z,52.27
2019-05-21T05:42:52.423Z,51.55
2019-05-21T05:45:23.852Z,50.00
2019-05-21T05:47:55.441Z,58.57
2019-05-21T05:50:30.652Z,51.53
2019-05-21T05:53:02.089Z,57.73
2019-05-21T05:55:33.501Z,50.67
2019-05-21T05:58:05.431Z,46.92
2019-05-21T06:00:37.647Z,46.40
2019-05-21T06:03:08.920Z,44.80
2019-05-21T06:05:39.951Z,47.10
2019-05-21T06:08:11.803Z,48.13
2019-05-21T06:10:43.113Z,42.73
2019-05-21T06:13:16.943Z,49.27
2019-05-21T06:15:49.423Z,39.33
2019-05-21T06:18:21.091Z,40.73
2019-05-21T06:20:52.935Z,37.07
2019-05-21T06:23:24.317Z,40.80
2019-05-21T06:25:56.253Z,40.58
2019-05-21T06:28:28.356Z,40.33
2019-05-21T06:31:00.538Z,38.73
2019-05-21T06:33:35.079Z,35.77
2019-05-21T06:36:06.600Z,39.50
2019-05-21T06:38:52.440Z,33.43
2019-05-21T06:41:24.520Z,35.43
2019-05-21T06:43:56.583Z,30.82
2019-05-21T06:46:28.168Z,31.97
2019-05-21T06:48:59.923Z,26.68
2019-05-21T06:51:31.928Z,26.83
2019-05-21T06:54:03.853Z,27.42
2019-05-21T06:56:36.043Z,25.13
2019-05-21T06:59:08.233Z,24.43
2019-05-21T07:01:40.447Z,23.17
2019-05-21T07:04:12.791Z,29.57
2019-05-21T07:06:44.944Z,24.97
2019-05-21T07:09:19.122Z,23.23
2019-05-21T07:11:50.933Z,24.43
2019-05-21T07:14:23.455Z,19.50
2019-05-21T07:16:55.658Z,17.93
2019-05-21T07:19:27.320Z,16.00
2019-05-21T07:22:11.986Z,18.73
2019-05-21T07:24:34.414Z,15.70
2019-05-21T07:27:06.186Z,16.02
2019-05-21T07:29:38.389Z,17.53
2019-05-21T07:32:10.439Z,14.57
2019-05-21T07:34:42.338Z,19.63
2019-05-21T07:37:15.162Z,14.03
2019-05-21T07:39:46.782Z,15.23
2019-05-21T07:42:20.155Z,15.80
2019-05-21T07:44:52.115Z,13.33
2019-05-21T07:47:24.077Z,17.00
2019-05-21T07:49:56.268Z,13.03
2019-05-21T07:52:28.056Z,17.70
2019-05-21T07:55:00.422Z,13.10
2019-05-21T07:57:32.228Z,14.80
2019-05-21T08:00:03.529Z,16.20
2019-05-21T08:02:35.546Z,14.87
2019-05-21T08:05:08.572Z,11.67
2019-05-21T08:07:40.685Z,11.67
2019-05-21T08:10:12.360Z,14.80
2019-05-21T08:12:44.300Z,13.72
2019-05-21T08:15:16.270Z,18.40
2019-05-21T08:17:47.755Z,20.13
2019-05-21T08:20:19.458Z,24.57
2019-05-21T08:22:51.186Z,25.27
2019-05-21T08:25:23.021Z,32.90
2019-05-21T08:27:54.955Z,24.50
2019-05-21T08:30:26.791Z,30.07
2019-05-21T08:32:59.087Z,26.37
2019-05-21T08:35:31.422Z,27.70
2019-05-21T08:38:06.579Z,25.00
2019-05-21T08:40:37.010Z,33.43
2019-05-21T08:43:08.262Z,32.23
2019-05-21T08:45:39.478Z,24.50
2019-05-21T08:48:12.309Z,24.83
2019-05-21T08:50:43.784Z,29.47
2019-05-21T08:53:15.216Z,21.83
2019-05-21T08:55:47.090Z,18.43
2019-05-21T08:58:19.285Z,17.27
2019-05-21T09:00:51.191Z,20.30
2019-05-21T09:03:23.563Z,19.25
2019-05-21T09:05:55.638Z,23.43
2019-05-21T09:08:27.161Z,19.10
2019-05-21T09:10:59.245Z,24.02
2019-05-21T09:13:30.943Z,19.73
2019-05-21T09:16:02.459Z,17.50
2019-05-21T09:18:34.124Z,23.80
2019-05-21T09:21:05.612Z,23.63
2019-05-21T09:23:37.408Z,22.80
2019-05-21T09:26:09.210Z,19.67
2019-05-21T09:28:41.184Z,19.02
2019-05-21T09:31:13.075Z,16.03
2019-05-21T09:33:45.221Z,17.53
2019-05-21T09:36:17.194Z,16.20
2019-05-21T09:38:49.334Z,16.87
2019-05-21T09:41:21.610Z,20.07
2019-05-21T09:43:53.540Z,18.17
2019-05-21T09:46:25.329Z,18.13
2019-05-21T09:48:56.689Z,23.07
2019-05-21T09:51:28.341Z,23.50
2019-05-21T09:53:59.893Z,25.00
2019-05-21T09:56:34.454Z,25.23
2019-05-21T09:59:19.407Z,29.10
2019-05-21T10:01:53.119Z,21.43
2019-05-21T10:04:24.743Z,23.93
2019-05-21T10:06:56.450Z,22.40
2019-05-21T10:09:27.756Z,21.00
2019-05-21T10:11:59.357Z,25.57
2019-05-21T10:14:34.217Z,21.13
2019-05-21T10:17:05.477Z,22.47
2019-05-21T10:19:37.052Z,18.43
2019-05-21T10:22:09.534Z,20.53
2019-05-21T10:24:42.015Z,18.70
2019-05-21T10:27:13.319Z,20.60
2019-05-21T10:29:44.965Z,19.83
2019-05-21T10:32:16.792Z,20.10
2019-05-21T10:34:49.844Z,20.73
2019-05-21T10:37:21.770Z,19.20
2019-05-21T10:39:53.183Z,17.70
2019-05-21T10:42:25.331Z,18.42
2019-05-21T10:44:57.145Z,16.60
2019-05-21T10:47:28.837Z,20.60
2019-05-21T10:50:01.253Z,17.43
2019-05-21T10:52:33.078Z,18.13
2019-05-21T10:55:04.662Z,16.90
2019-05-21T10:57:36.572Z,17.40
2019-05-21T11:00:11.195Z,17.97
2019-05-21T11:02:48.408Z,16.03
2019-05-21T11:05:32.779Z,18.30
2019-05-21T11:08:22.800Z,16.33
2019-05-21T11:10:38.960Z,23.80
2019-05-21T11:13:10.892Z,21.73
2019-05-21T11:15:42.827Z,19.47
2019-05-21T11:18:14.929Z,17.43
2019-05-21T11:20:46.516Z,15.83
2019-05-21T11:23:18.328Z,19.07
2019-05-21T11:25:50.368Z,19.40
2019-05-21T11:28:21.906Z,18.30
2019-05-21T11:30:53.524Z,16.23
2019-05-21T11:33:25.380Z,16.87
2019-05-21T11:35:56.941Z,19.63
2019-05-21T11:38:39.434Z,18.87
2019-05-21T11:41:02.301Z,20.57
2019-05-21T11:43:34.179Z,13.57
2019-05-21T11:46:06.107Z,15.43
2019-05-21T11:48:37.420Z,16.17
2019-05-21T11:51:12.645Z,19.90
2019-05-21T11:53:43.501Z,11.47
2019-05-21T11:56:15.047Z,14.60
2019-05-21T11:58:46.670Z,12.43
2019-05-21T12:01:17.969Z,12.87
2019-05-21T12:03:49.283Z,11.20
2019-05-21T12:06:20.371Z,10.80
2019-05-21T12:08:56.784Z,8.53
2019-05-21T12:11:25.654Z,8.13
2019-05-21T12:13:56.943Z,3.73
2019-05-21T12:16:28.111Z,4.47
2019-05-21T12:18:59.256Z,3.77
2019-05-21T12:21:30.319Z,3.90
2019-05-21T12:24:01.888Z,3.00
2019-05-21T12:26:33.036Z,4.35
2019-05-21T12:29:04.551Z,3.98
2019-05-21T12:31:36.050Z,1.97
2019-05-21T12:34:07.526Z,3.57
2019-05-21T12:36:38.976Z,2.50
2019-05-21T12:39:14.218Z,2.80
2019-05-21T12:41:43.299Z,4.28
2019-05-21T12:44:14.378Z,7.93
2019-05-21T12:46:46.617Z,2.40
2019-05-21T12:49:17.716Z,2.27
2019-05-21T12:51:49.039Z,2.13
2019-05-21T12:54:20.052Z,3.47
2019-05-21T12:56:51.372Z,1.63
2019-05-21T12:59:22.524Z,2.00
2019-05-21T13:01:53.452Z,2.97
2019-05-21T13:04:24.567Z,3.10
2019-05-21T13:06:55.997Z,3.67
2019-05-21T13:09:32.686Z,4.17
2019-05-21T13:11:59.737Z,4.30
2019-05-21T13:14:31.540Z,4.53
2019-05-21T13:17:02.678Z,5.42
2019-05-21T13:19:33.946Z,5.13
2019-05-21T13:22:05.085Z,5.23
2019-05-21T13:24:36.177Z,6.03
2019-05-21T13:27:07.472Z,5.50
2019-05-21T13:29:38.897Z,5.13
2019-05-21T13:32:10.010Z,6.00
2019-05-21T13:34:41.130Z,7.70
2019-05-21T13:37:12.186Z,5.00
2019-05-21T13:39:49.892Z,7.33
2019-05-21T13:42:16.254Z,6.47
2019-05-21T13:44:47.377Z,7.07
2019-05-21T13:47:18.449Z,9.60
2019-05-21T13:49:49.526Z,6.53
2019-05-21T13:52:20.995Z,5.87
2019-05-21T13:54:52.397Z,7.10
2019-05-21T13:57:23.580Z,5.10
2019-05-21T13:59:54.671Z,6.97
2019-05-21T14:02:25.833Z,7.83
2019-05-21T14:04:57.412Z,6.53
2019-05-21T14:07:29.651Z,11.15
2019-05-21T14:10:14.126Z,7.17
2019-05-21T14:12:34.905Z,6.60
2019-05-21T14:15:06.694Z,5.43
2019-05-21T14:17:37.808Z,5.77
2019-05-21T14:20:09.186Z,8.27
2019-05-21T14:22:40.148Z,5.80
2019-05-21T14:25:11.443Z,4.87
2019-05-21T14:27:44.897Z,7.10
2019-05-21T14:30:15.870Z,9.30
2019-05-21T14:32:48.492Z,11.93
2019-05-21T14:35:19.630Z,13.77
2019-05-21T14:37:50.900Z,13.73
2019-05-21T14:40:31.518Z,15.67
2019-05-21T14:43:00.344Z,18.53
2019-05-21T14:45:33.944Z,20.12
2019-05-21T14:48:03.291Z,23.10
2019-05-21T14:50:34.768Z,18.63
2019-05-21T14:53:05.848Z,22.13
2019-05-21T14:55:36.924Z,19.30
2019-05-21T14:58:07.959Z,20.67
2019-05-21T15:00:39.037Z,19.73
2019-05-21T15:03:24.359Z,23.87
2019-05-21T15:05:43.486Z,19.60
2019-05-21T15:08:14.585Z,21.30
2019-05-21T15:10:48.909Z,22.10
2019-05-21T15:13:18.428Z,22.40
2019-05-21T15:15:49.743Z,19.63
2019-05-21T15:18:22.198Z,22.37
2019-05-21T15:21:02.563Z,24.23
2019-05-21T15:23:33.780Z,21.67
2019-05-21T15:26:05.647Z,17.80
2019-05-21T15:28:36.755Z,19.80
2019-05-21T15:31:08.357Z,26.73
2019-05-21T15:33:39.750Z,21.47
2019-05-21T15:36:11.128Z,20.40
2019-05-21T15:38:50.349Z,24.10
2019-05-21T15:41:15.150Z,24.03
2019-05-21T15:43:47.138Z,20.57
2019-05-21T15:46:18.154Z,19.83
2019-05-21T15:48:49.357Z,20.10
2019-05-21T15:51:20.681Z,19.67
2019-05-21T15:53:51.828Z,22.57
2019-05-21T15:56:22.861Z,20.53
2019-05-21T15:58:57.186Z,23.97
2019-05-21T16:01:28.433Z,21.37
2019-05-21T16:03:59.610Z,18.80
2019-05-21T16:06:32.082Z,23.47
2019-05-21T16:09:05.158Z,23.63
2019-05-21T16:11:36.668Z,28.50
2019-05-21T16:14:07.745Z,30.53
2019-05-21T16:16:38.821Z,28.53
2019-05-21T16:19:10.029Z,27.47
2019-05-21T16:21:41.055Z,33.10
2019-05-21T16:24:12.095Z,34.45
2019-05-21T16:26:43.342Z,27.90
2019-05-21T16:29:14.676Z,28.10
2019-05-21T16:31:45.869Z,28.07
2019-05-21T16:34:17.234Z,26.87
2019-05-21T16:36:48.448Z,25.90
2019-05-21T16:39:21.645Z,27.75
2019-05-21T16:41:53.112Z,24.90
2019-05-21T16:44:24.383Z,26.13
2019-05-21T16:46:55.836Z,30.47
2019-05-21T16:49:27.188Z,29.70
2019-05-21T16:51:58.578Z,30.40
2019-05-21T16:54:29.671Z,34.00
2019-05-21T16:57:00.787Z,33.40
2019-05-21T16:59:32.119Z,30.57
2019-05-21T17:02:04.334Z,29.07
2019-05-21T17:04:35.472Z,31.23
2019-05-21T17:07:07.245Z,32.23
2019-05-21T17:09:38.475Z,34.40
2019-05-21T17:12:10.233Z,30.00
2019-05-21T17:14:41.591Z,31.30
2019-05-21T17:17:12.657Z,27.65
2019-05-21T17:19:44.047Z,28.35
2019-05-21T17:22:15.097Z,31.57
2019-05-21T17:24:46.112Z,26.80
2019-05-21T17:27:17.142Z,25.43
2019-05-21T17:29:48.314Z,25.87
2019-05-21T17:32:19.663Z,18.30
2019-05-21T17:34:50.752Z,19.20
2019-05-21T17:37:22.391Z,21.83
2019-05-21T17:39:54.004Z,19.20
2019-05-21T17:42:25.154Z,21.57
2019-05-21T17:44:56.542Z,22.47
2019-05-21T17:47:27.996Z,25.23
2019-05-21T17:49:59.094Z,22.50
2019-05-21T17:52:30.085Z,17.20
2019-05-21T17:55:01.205Z,16.53
2019-05-21T17:57:33.675Z,16.97
2019-05-21T18:00:06.893Z,20.30
2019-05-21T18:02:39.562Z,19.10
2019-05-21T18:05:11.290Z,15.05
2019-05-21T18:07:42.946Z,15.40
2019-05-21T18:10:15.257Z,16.60
2019-05-21T18:12:46.251Z,17.50
2019-05-21T18:15:18.298Z,15.37
2019-05-21T18:17:49.409Z,16.37
2019-05-21T18:20:21.111Z,13.70
2019-05-21T18:22:52.537Z,15.13
2019-05-21T18:25:24.141Z,15.40
2019-05-21T18:27:55.231Z,19.03
2019-05-21T18:30:26.309Z,17.97
2019-05-21T18:32:57.584Z,17.93
2019-05-21T18:35:28.688Z,16.30
2019-05-21T18:38:00.069Z,17.25
2019-05-21T18:40:31.273Z,15.60
2019-05-21T18:43:03.011Z,17.03
2019-05-21T18:45:35.131Z,16.73
2019-05-21T18:48:06.344Z,19.27
2019-05-21T18:50:37.942Z,18.23
2019-05-21T18:53:09.406Z,16.10
2019-05-21T18:55:40.657Z,19.52
2019-05-21T18:58:11.850Z,20.05
2019-05-21T19:00:43.338Z,17.37
2019-05-21T19:03:14.460Z,23.27
2019-05-21T19:05:45.824Z,21.20
2019-05-21T19:08:16.968Z,19.47
2019-05-21T19:10:48.736Z,22.30
2019-05-21T19:13:19.931Z,25.33
2019-05-21T19:15:51.024Z,26.13
2019-05-21T19:18:22.788Z,27.07
2019-05-21T19:20:54.012Z,26.03
2019-05-21T19:23:25.436Z,26.83
2019-05-21T19:25:56.916Z,24.73
2019-05-21T19:28:27.922Z,24.97
2019-05-21T19:30:59.240Z,28.27
2019-05-21T19:33:30.802Z,26.87
2019-05-21T19:36:02.127Z,33.57
2019-05-21T19:38:33.251Z,29.23
2019-05-21T19:41:04.402Z,29.70
2019-05-21T19:43:36.057Z,26.48
2019-05-21T19:46:07.734Z,27.57
2019-05-21T19:48:38.746Z,28.83
2019-05-21T19:51:09.899Z,30.60
2019-05-21T19:53:41.332Z,29.30
2019-05-21T19:56:13.041Z,26.75
2019-05-21T19:58:44.469Z,27.10
2019-05-21T20:01:15.953Z,26.27
2019-05-21T20:03:47.308Z,26.83
2019-05-21T20:06:20.102Z,27.43
2019-05-21T20:08:51.261Z,36.97
2019-05-21T20:11:22.813Z,29.97
2019-05-21T20:13:54.327Z,32.33
2019-05-21T20:16:26.170Z,32.27
2019-05-21T20:18:58.208Z,30.27
2019-05-21T20:21:29.956Z,26.63
2019-05-21T20:24:01.902Z,39.10
2019-05-21T20:26:34.456Z,32.57
2019-05-21T20:29:09.272Z,30.23
2019-05-21T20:31:42.965Z,26.50
2019-05-21T20:34:14.458Z,27.67
2019-05-21T20:36:45.808Z,28.17
2019-05-21T20:39:18.619Z,28.30
2019-05-21T20:41:50.286Z,28.47
2019-05-21T20:44:21.863Z,34.50
2019-05-21T20:46:54.787Z,32.90
2019-05-21T20:49:26.222Z,36.37
2019-05-21T20:51:57.297Z,35.80
2019-05-21T20:54:29.913Z,39.10
2019-05-21T20:57:01.269Z,35.30
2019-05-21T20:59:32.873Z,43.33
2019-05-21T21:02:08.094Z,37.60
2019-05-21T21:04:37.587Z,35.83
2019-05-21T21:07:08.655Z,38.50
2019-05-21T21:09:40.294Z,38.33
2019-05-21T21:12:11.696Z,37.07
2019-05-21T21:14:44.353Z,42.33
2019-05-21T21:17:16.277Z,38.30
2019-05-21T21:19:47.539Z,37.83
2019-05-21T21:22:19.417Z,43.70
2019-05-21T21:24:50.737Z,44.10
2019-05-21T21:27:22.862Z,37.70
2019-05-21T21:29:54.147Z,40.50
2019-05-21T21:32:25.245Z,38.43
2019-05-21T21:34:56.601Z,43.00
2019-05-21T21:37:28.142Z,40.77
2019-05-21T21:40:00.259Z,39.53
2019-05-21T21:42:31.368Z,40.07
2019-05-21T21:45:02.390Z,42.03
2019-05-21T21:47:33.687Z,43.57
2019-05-21T21:50:06.556Z,39.90
2019-05-21T21:52:38.248Z,38.50
2019-05-21T21:55:09.417Z,38.97
2019-05-21T21:57:40.713Z,39.00
2019-05-21T22:00:39.614Z,39.07
2019-05-21T22:03:11.548Z,39.97
2019-05-21T22:05:42.754Z,41.33
2019-05-21T22:08:14.318Z,37.90
2019-05-21T22:10:46.001Z,41.93
2019-05-21T22:13:18.621Z,33.77
2019-05-21T22:15:49.739Z,38.00
2019-05-21T22:18:20.979Z,34.53
2019-05-21T22:20:52.365Z,39.63
2019-05-21T22:23:23.541Z,43.73
2019-05-21T22:25:54.798Z,37.37
2019-05-21T22:28:25.867Z,34.33
2019-05-21T22:30:57.489Z,34.90
2019-05-21T22:33:29.138Z,38.73
2019-05-21T22:36:00.490Z,35.13
2019-05-21T22:38:32.893Z,39.50
2019-05-21T22:41:03.995Z,49.03
2019-05-21T22:43:35.348Z,48.00
2019-05-21T22:46:06.456Z,51.90
2019-05-21T22:48:37.936Z,55.07
2019-05-21T22:51:09.230Z,49.13
2019-05-21T22:53:40.987Z,48.03
2019-05-21T22:56:12.011Z,44.70
2019-05-21T22:58:42.977Z,46.07
2019-05-21T23:01:15.909Z,47.57
2019-05-21T23:03:47.186Z,47.03
2019-05-21T23:06:18.508Z,44.07
2019-05-21T23:08:49.607Z,42.93
2019-05-21T23:11:23.023Z,38.83
2019-05-21T23:13:53.461Z,44.05
2019-05-21T23:16:25.808Z,43.13
2019-05-21T23:19:11.666Z,43.08
2019-05-21T23:21:46.348Z,40.67
2019-05-21T23:24:22.135Z,46.48
2019-05-21T23:26:53.808Z,47.43
2019-05-21T23:29:25.771Z,44.75
2019-05-21T23:31:56.862Z,47.13
2019-05-21T23:34:29.277Z,42.53
2019-05-21T23:37:02.456Z,43.07
2019-05-21T23:39:34.865Z,41.53
2019-05-21T23:42:08.671Z,42.00
2019-05-21T23:44:41.190Z,45.95
2019-05-21T23:47:15.297Z,42.07
2019-05-21T23:49:46.573Z,42.97
2019-05-21T23:52:17.714Z,46.43
2019-05-21T23:54:48.828Z,50.27
2019-05-21T23:57:27.215Z,42.43
2019-05-21T23:59:58.289Z,45.43
